sensor_id;sensor_type;location;lat;lon;timestamp;temperature;humidity
53268;DHT22;39156;51.176;6.738;2023-09-08T00:02:04;21.10;60.30
53268;DHT22;39156;51.176;6.738;2023-09-08T00:04:30;21.00;60.40
53268;DHT22;39156;51.176;6.738;2023-09-08T00:06:56;21.00;60.60
53268;DHT22;39156;51.176;6.738;2023-09-08T00:09:21;20.90;60.60
53268;DHT22;39156;51.176;6.738;2023-09-08T00:11:47;20.90;60.90
53268;DHT22;39156;51.176;6.738;2023-09-08T00:14:12;20.80;61.10
53268;DHT22;39156;51.176;6.738;2023-09-08T00:16:38;20.80;61.20
53268;DHT22;39156;51.176;6.738;2023-09-08T00:19:08;20.80;61.30
53268;DHT22;39156;51.176;6.738;2023-09-08T00:21:35;20.70;61.50
53268;DHT22;39156;51.176;6.738;2023-09-08T00:24:01;20.60;61.60
53268;DHT22;39156;51.176;6.738;2023-09-08T00:26:27;20.60;61.70
53268;DHT22;39156;51.176;6.738;2023-09-08T00:28:53;20.60;61.70
53268;DHT22;39156;51.176;6.738;2023-09-08T00:31:18;20.50;62.50
53268;DHT22;39156;51.176;6.738;2023-09-08T00:33:44;20.50;62.10
53268;DHT22;39156;51.176;6.738;2023-09-08T00:36:10;20.40;62.20
53268;DHT22;39156;51.176;6.738;2023-09-08T00:38:35;20.40;62.30
53268;DHT22;39156;51.176;6.738;2023-09-08T00:41:01;20.40;62.40
53268;DHT22;39156;51.176;6.738;2023-09-08T00:43:27;20.40;62.60
53268;DHT22;39156;51.176;6.738;2023-09-08T00:45:54;20.30;62.70
53268;DHT22;39156;51.176;6.738;2023-09-08T00:48:20;20.20;62.80
53268;DHT22;39156;51.176;6.738;2023-09-08T00:50:46;20.20;62.90
53268;DHT22;39156;51.176;6.738;2023-09-08T00:53:12;20.10;63.00
53268;DHT22;39156;51.176;6.738;2023-09-08T00:55:39;20.10;63.20
53268;DHT22;39156;51.176;6.738;2023-09-08T00:58:05;20.10;63.30
53268;DHT22;39156;51.176;6.738;2023-09-08T01:00:31;20.10;63.50
53268;DHT22;39156;51.176;6.738;2023-09-08T01:02:58;20.00;63.50
53268;DHT22;39156;51.176;6.738;2023-09-08T01:05:23;20.00;63.60
53268;DHT22;39156;51.176;6.738;2023-09-08T01:07:50;20.00;63.70
53268;DHT22;39156;51.176;6.738;2023-09-08T01:10:16;19.90;63.80
53268;DHT22;39156;51.176;6.738;2023-09-08T01:12:42;19.80;63.90
53268;DHT22;39156;51.176;6.738;2023-09-08T01:15:08;19.80;64.00
53268;DHT22;39156;51.176;6.738;2023-09-08T01:17:34;19.80;64.10
53268;DHT22;39156;51.176;6.738;2023-09-08T01:20:15;19.70;64.30
53268;DHT22;39156;51.176;6.738;2023-09-08T01:23:01;19.70;65.00
53268;DHT22;39156;51.176;6.738;2023-09-08T01:25:28;19.60;65.20
53268;DHT22;39156;51.176;6.738;2023-09-08T01:27:57;19.60;64.90
53268;DHT22;39156;51.176;6.738;2023-09-08T01:30:27;19.50;65.10
53268;DHT22;39156;51.176;6.738;2023-09-08T01:32:54;19.50;65.30
53268;DHT22;39156;51.176;6.738;2023-09-08T01:35:21;19.40;65.30
53268;DHT22;39156;51.176;6.738;2023-09-08T01:37:48;19.40;65.40
53268;DHT22;39156;51.176;6.738;2023-09-08T01:40:14;19.40;65.60
53268;DHT22;39156;51.176;6.738;2023-09-08T01:42:40;19.30;65.70
53268;DHT22;39156;51.176;6.738;2023-09-08T01:45:07;19.30;65.80
53268;DHT22;39156;51.176;6.738;2023-09-08T01:47:33;19.30;65.90
53268;DHT22;39156;51.176;6.738;2023-09-08T01:50:00;19.30;66.20
53268;DHT22;39156;51.176;6.738;2023-09-08T01:52:26;19.20;66.20
53268;DHT22;39156;51.176;6.738;2023-09-08T01:54:52;19.30;66.20
53268;DHT22;39156;51.176;6.738;2023-09-08T01:57:18;19.20;66.10
53268;DHT22;39156;51.176;6.738;2023-09-08T01:59:44;19.20;66.00
53268;DHT22;39156;51.176;6.738;2023-09-08T02:02:13;19.20;66.00
53268;DHT22;39156;51.176;6.738;2023-09-08T02:04:39;19.20;66.00
53268;DHT22;39156;51.176;6.738;2023-09-08T02:07:04;19.20;66.00
53268;DHT22;39156;51.176;6.738;2023-09-08T02:09:39;19.20;66.20
53268;DHT22;39156;51.176;6.738;2023-09-08T02:12:05;19.10;66.60
53268;DHT22;39156;51.176;6.738;2023-09-08T02:14:31;19.10;66.10
53268;DHT22;39156;51.176;6.738;2023-09-08T02:16:57;19.10;66.30
53268;DHT22;39156;51.176;6.738;2023-09-08T02:19:23;19.00;66.50
53268;DHT22;39156;51.176;6.738;2023-09-08T02:21:49;19.00;66.60
53268;DHT22;39156;51.176;6.738;2023-09-08T02:24:14;18.90;66.70
53268;DHT22;39156;51.176;6.738;2023-09-08T02:26:41;18.90;66.70
53268;DHT22;39156;51.176;6.738;2023-09-08T02:29:07;18.90;66.80
53268;DHT22;39156;51.176;6.738;2023-09-08T02:31:33;18.90;66.90
53268;DHT22;39156;51.176;6.738;2023-09-08T02:33:59;18.90;67.10
53268;DHT22;39156;51.176;6.738;2023-09-08T02:36:25;18.80;67.10
53268;DHT22;39156;51.176;6.738;2023-09-08T02:38:55;18.80;67.10
53268;DHT22;39156;51.176;6.738;2023-09-08T02:41:22;18.80;67.30
53268;DHT22;39156;51.176;6.738;2023-09-08T02:43:48;18.80;67.40
53268;DHT22;39156;51.176;6.738;2023-09-08T02:46:14;18.80;66.90
53268;DHT22;39156;51.176;6.738;2023-09-08T02:48:40;18.80;67.20
53268;DHT22;39156;51.176;6.738;2023-09-08T02:51:06;18.70;67.50
53268;DHT22;39156;51.176;6.738;2023-09-08T02:53:32;18.80;67.70
53268;DHT22;39156;51.176;6.738;2023-09-08T02:55:59;18.80;68.40
53268;DHT22;39156;51.176;6.738;2023-09-08T02:58:26;18.70;67.90
53268;DHT22;39156;51.176;6.738;2023-09-08T03:00:52;18.70;67.90
53268;DHT22;39156;51.176;6.738;2023-09-08T03:03:19;18.70;68.00
53268;DHT22;39156;51.176;6.738;2023-09-08T03:05:44;18.70;68.10
53268;DHT22;39156;51.176;6.738;2023-09-08T03:08:10;18.70;68.20
53268;DHT22;39156;51.176;6.738;2023-09-08T03:10:36;18.70;68.40
53268;DHT22;39156;51.176;6.738;2023-09-08T03:13:03;18.70;68.50
53268;DHT22;39156;51.176;6.738;2023-09-08T03:15:29;18.60;68.50
53268;DHT22;39156;51.176;6.738;2023-09-08T03:17:55;18.60;68.50
53268;DHT22;39156;51.176;6.738;2023-09-08T03:20:22;18.50;68.60
53268;DHT22;39156;51.176;6.738;2023-09-08T03:22:48;18.60;68.60
53268;DHT22;39156;51.176;6.738;2023-09-08T03:25:14;18.60;68.60
53268;DHT22;39156;51.176;6.738;2023-09-08T03:27:40;18.50;68.70
53268;DHT22;39156;51.176;6.738;2023-09-08T03:30:06;18.50;68.70
53268;DHT22;39156;51.176;6.738;2023-09-08T03:32:32;18.50;68.80
53268;DHT22;39156;51.176;6.738;2023-09-08T03:34:58;18.50;68.80
53268;DHT22;39156;51.176;6.738;2023-09-08T03:37:24;18.50;68.90
53268;DHT22;39156;51.176;6.738;2023-09-08T03:39:52;18.50;69.00
53268;DHT22;39156;51.176;6.738;2023-09-08T03:42:18;18.50;69.00
53268;DHT22;39156;51.176;6.738;2023-09-08T03:44:44;18.50;68.50
53268;DHT22;39156;51.176;6.738;2023-09-08T03:47:09;18.50;68.80
53268;DHT22;39156;51.176;6.738;2023-09-08T03:49:35;18.50;68.90
53268;DHT22;39156;51.176;6.738;2023-09-08T03:52:01;18.40;69.10
53268;DHT22;39156;51.176;6.738;2023-09-08T03:54:27;18.40;69.10
53268;DHT22;39156;51.176;6.738;2023-09-08T03:56:52;18.30;69.20
53268;DHT22;39156;51.176;6.738;2023-09-08T03:59:18;18.30;69.20
53268;DHT22;39156;51.176;6.738;2023-09-08T04:01:44;18.30;69.30
53268;DHT22;39156;51.176;6.738;2023-09-08T04:04:09;18.40;69.40
53268;DHT22;39156;51.176;6.738;2023-09-08T04:06:35;18.30;69.40
53268;DHT22;39156;51.176;6.738;2023-09-08T04:09:01;18.30;69.50
53268;DHT22;39156;51.176;6.738;2023-09-08T04:11:26;18.30;69.60
53268;DHT22;39156;51.176;6.738;2023-09-08T04:13:52;18.30;69.70
53268;DHT22;39156;51.176;6.738;2023-09-08T04:16:18;18.30;69.70
53268;DHT22;39156;51.176;6.738;2023-09-08T04:18:44;18.30;69.80
53268;DHT22;39156;51.176;6.738;2023-09-08T04:21:10;18.30;69.90
53268;DHT22;39156;51.176;6.738;2023-09-08T04:23:35;18.20;70.00
53268;DHT22;39156;51.176;6.738;2023-09-08T04:26:01;18.20;70.10
53268;DHT22;39156;51.176;6.738;2023-09-08T04:28:27;18.20;70.20
53268;DHT22;39156;51.176;6.738;2023-09-08T04:30:53;18.10;70.20
53268;DHT22;39156;51.176;6.738;2023-09-08T04:33:19;18.20;70.30
53268;DHT22;39156;51.176;6.738;2023-09-08T04:35:44;18.20;70.30
53268;DHT22;39156;51.176;6.738;2023-09-08T04:38:10;18.20;70.40
53268;DHT22;39156;51.176;6.738;2023-09-08T04:40:38;18.10;70.50
53268;DHT22;39156;51.176;6.738;2023-09-08T04:43:06;18.10;70.50
53268;DHT22;39156;51.176;6.738;2023-09-08T04:45:31;18.10;70.60
53268;DHT22;39156;51.176;6.738;2023-09-08T04:47:57;18.10;70.70
53268;DHT22;39156;51.176;6.738;2023-09-08T04:50:23;18.00;70.60
53268;DHT22;39156;51.176;6.738;2023-09-08T04:52:48;18.00;70.70
53268;DHT22;39156;51.176;6.738;2023-09-08T04:55:14;18.00;70.70
53268;DHT22;39156;51.176;6.738;2023-09-08T04:57:40;18.10;70.90
53268;DHT22;39156;51.176;6.738;2023-09-08T05:00:06;18.10;71.00
53268;DHT22;39156;51.176;6.738;2023-09-08T05:02:32;18.00;71.00
53268;DHT22;39156;51.176;6.738;2023-09-08T05:04:58;18.00;71.20
53268;DHT22;39156;51.176;6.738;2023-09-08T05:07:25;18.00;70.80
53268;DHT22;39156;51.176;6.738;2023-09-08T05:09:51;18.00;70.90
53268;DHT22;39156;51.176;6.738;2023-09-08T05:12:16;17.90;71.00
53268;DHT22;39156;51.176;6.738;2023-09-08T05:14:42;17.90;71.10
53268;DHT22;39156;51.176;6.738;2023-09-08T05:17:08;17.90;71.20
53268;DHT22;39156;51.176;6.738;2023-09-08T05:19:34;17.90;71.20
53268;DHT22;39156;51.176;6.738;2023-09-08T05:22:00;17.90;71.30
53268;DHT22;39156;51.176;6.738;2023-09-08T05:24:26;17.90;71.40
53268;DHT22;39156;51.176;6.738;2023-09-08T05:26:52;18.00;71.40
53268;DHT22;39156;51.176;6.738;2023-09-08T05:29:18;17.90;71.50
53268;DHT22;39156;51.176;6.738;2023-09-08T05:31:44;17.90;71.50
53268;DHT22;39156;51.176;6.738;2023-09-08T05:34:10;18.00;71.70
53268;DHT22;39156;51.176;6.738;2023-09-08T05:36:36;17.90;71.60
53268;DHT22;39156;51.176;6.738;2023-09-08T05:39:03;18.00;71.70
53268;DHT22;39156;51.176;6.738;2023-09-08T05:41:30;18.00;71.70
53268;DHT22;39156;51.176;6.738;2023-09-08T05:43:57;18.00;71.70
53268;DHT22;39156;51.176;6.738;2023-09-08T05:46:23;18.10;71.30
53268;DHT22;39156;51.176;6.738;2023-09-08T05:48:49;18.20;71.30
53268;DHT22;39156;51.176;6.738;2023-09-08T05:51:14;18.20;71.30
53268;DHT22;39156;51.176;6.738;2023-09-08T05:53:40;18.10;71.30
53268;DHT22;39156;51.176;6.738;2023-09-08T05:56:07;18.20;71.40
53268;DHT22;39156;51.176;6.738;2023-09-08T05:58:33;18.30;71.70
53268;DHT22;39156;51.176;6.738;2023-09-08T06:01:03;18.30;71.60
53268;DHT22;39156;51.176;6.738;2023-09-08T06:03:30;18.40;71.50
53268;DHT22;39156;51.176;6.738;2023-09-08T06:05:56;18.40;71.50
53268;DHT22;39156;51.176;6.738;2023-09-08T06:08:26;18.50;71.40
53268;DHT22;39156;51.176;6.738;2023-09-08T06:10:54;18.50;71.40
53268;DHT22;39156;51.176;6.738;2023-09-08T06:13:21;18.60;71.50
53268;DHT22;39156;51.176;6.738;2023-09-08T06:15:48;18.70;71.40
53268;DHT22;39156;51.176;6.738;2023-09-08T06:18:15;18.70;71.30
53268;DHT22;39156;51.176;6.738;2023-09-08T06:20:45;18.80;71.00
53268;DHT22;39156;51.176;6.738;2023-09-08T06:23:14;18.80;70.90
53268;DHT22;39156;51.176;6.738;2023-09-08T06:25:45;18.90;70.90
53268;DHT22;39156;51.176;6.738;2023-09-08T06:28:10;18.90;70.70
53268;DHT22;39156;51.176;6.738;2023-09-08T06:30:36;19.00;70.40
53268;DHT22;39156;51.176;6.738;2023-09-08T06:33:02;19.00;70.40
53268;DHT22;39156;51.176;6.738;2023-09-08T06:35:27;19.10;70.60
53268;DHT22;39156;51.176;6.738;2023-09-08T06:37:53;19.30;71.70
53268;DHT22;39156;51.176;6.738;2023-09-08T06:40:19;19.60;73.40
53268;DHT22;39156;51.176;6.738;2023-09-08T06:42:45;20.10;73.20
53268;DHT22;39156;51.176;6.738;2023-09-08T06:45:10;20.60;73.00
53268;DHT22;39156;51.176;6.738;2023-09-08T06:47:36;21.30;72.50
53268;DHT22;39156;51.176;6.738;2023-09-08T06:50:02;22.00;71.60
53268;DHT22;39156;51.176;6.738;2023-09-08T06:52:27;22.60;69.90
53268;DHT22;39156;51.176;6.738;2023-09-08T06:54:53;23.30;68.80
53268;DHT22;39156;51.176;6.738;2023-09-08T06:57:19;24.00;68.30
53268;DHT22;39156;51.176;6.738;2023-09-08T06:59:47;24.60;66.50
53268;DHT22;39156;51.176;6.738;2023-09-08T07:02:13;25.20;65.20
53268;DHT22;39156;51.176;6.738;2023-09-08T07:04:38;25.80;64.50
53268;DHT22;39156;51.176;6.738;2023-09-08T07:07:04;26.30;62.90
53268;DHT22;39156;51.176;6.738;2023-09-08T07:09:34;26.90;61.80
53268;DHT22;39156;51.176;6.738;2023-09-08T07:12:01;27.40;60.60
53268;DHT22;39156;51.176;6.738;2023-09-08T07:14:26;28.00;59.40
53268;DHT22;39156;51.176;6.738;2023-09-08T07:16:52;28.50;57.60
53268;DHT22;39156;51.176;6.738;2023-09-08T07:19:17;28.90;55.90
53268;DHT22;39156;51.176;6.738;2023-09-08T07:21:43;29.40;55.00
53268;DHT22;39156;51.176;6.738;2023-09-08T07:24:09;29.80;53.40
53268;DHT22;39156;51.176;6.738;2023-09-08T07:26:34;30.20;52.00
53268;DHT22;39156;51.176;6.738;2023-09-08T07:29:00;30.50;50.90
53268;DHT22;39156;51.176;6.738;2023-09-08T07:31:26;30.70;51.20
53268;DHT22;39156;51.176;6.738;2023-09-08T07:33:51;31.00;49.80
53268;DHT22;39156;51.176;6.738;2023-09-08T07:36:17;31.20;48.80
53268;DHT22;39156;51.176;6.738;2023-09-08T07:38:43;31.50;48.20
53268;DHT22;39156;51.176;6.738;2023-09-08T07:41:08;31.80;48.20
53268;DHT22;39156;51.176;6.738;2023-09-08T07:43:34;32.00;47.40
53268;DHT22;39156;51.176;6.738;2023-09-08T07:46:03;32.30;46.90
53268;DHT22;39156;51.176;6.738;2023-09-08T07:48:28;32.50;46.60
53268;DHT22;39156;51.176;6.738;2023-09-08T07:50:54;32.80;46.40
53268;DHT22;39156;51.176;6.738;2023-09-08T07:53:20;33.00;45.60
53268;DHT22;39156;51.176;6.738;2023-09-08T07:55:45;33.30;45.30
53268;DHT22;39156;51.176;6.738;2023-09-08T07:58:11;33.50;44.70
53268;DHT22;39156;51.176;6.738;2023-09-08T08:00:37;33.70;44.10
53268;DHT22;39156;51.176;6.738;2023-09-08T08:03:02;34.00;43.90
53268;DHT22;39156;51.176;6.738;2023-09-08T08:05:28;34.20;43.60
53268;DHT22;39156;51.176;6.738;2023-09-08T08:07:54;34.40;43.10
53268;DHT22;39156;51.176;6.738;2023-09-08T08:10:19;34.60;42.50
53268;DHT22;39156;51.176;6.738;2023-09-08T08:12:45;34.80;42.20
53268;DHT22;39156;51.176;6.738;2023-09-08T08:15:11;35.00;41.90
53268;DHT22;39156;51.176;6.738;2023-09-08T08:17:37;35.20;41.90
53268;DHT22;39156;51.176;6.738;2023-09-08T08:20:05;35.30;41.90
53268;DHT22;39156;51.176;6.738;2023-09-08T08:22:33;35.50;41.50
53268;DHT22;39156;51.176;6.738;2023-09-08T08:24:58;35.80;40.90
53268;DHT22;39156;51.176;6.738;2023-09-08T08:27:24;35.90;40.70
53268;DHT22;39156;51.176;6.738;2023-09-08T08:29:50;36.10;40.20
53268;DHT22;39156;51.176;6.738;2023-09-08T08:32:16;36.30;40.20
53268;DHT22;39156;51.176;6.738;2023-09-08T08:34:42;36.50;40.10
53268;DHT22;39156;51.176;6.738;2023-09-08T08:37:10;36.50;39.50
53268;DHT22;39156;51.176;6.738;2023-09-08T08:39:36;36.80;39.30
53268;DHT22;39156;51.176;6.738;2023-09-08T08:42:17;36.80;39.20
53268;DHT22;39156;51.176;6.738;2023-09-08T08:44:43;36.90;38.70
53268;DHT22;39156;51.176;6.738;2023-09-08T08:47:11;37.10;39.10
53268;DHT22;39156;51.176;6.738;2023-09-08T08:49:38;37.10;38.60
53268;DHT22;39156;51.176;6.738;2023-09-08T08:52:08;37.20;38.30
53268;DHT22;39156;51.176;6.738;2023-09-08T08:54:40;37.30;38.00
53268;DHT22;39156;51.176;6.738;2023-09-08T08:57:07;37.20;37.30
53268;DHT22;39156;51.176;6.738;2023-09-08T08:59:33;37.30;37.90
53268;DHT22;39156;51.176;6.738;2023-09-08T09:02:00;37.40;38.00
53268;DHT22;39156;51.176;6.738;2023-09-08T09:04:28;37.40;37.50
53268;DHT22;39156;51.176;6.738;2023-09-08T09:06:54;37.40;37.40
53268;DHT22;39156;51.176;6.738;2023-09-08T09:09:20;37.50;37.80
53268;DHT22;39156;51.176;6.738;2023-09-08T09:11:46;37.50;37.70
53268;DHT22;39156;51.176;6.738;2023-09-08T09:14:12;37.60;37.90
53268;DHT22;39156;51.176;6.738;2023-09-08T09:16:41;37.70;37.80
53268;DHT22;39156;51.176;6.738;2023-09-08T09:19:09;37.70;37.10
53268;DHT22;39156;51.176;6.738;2023-09-08T09:21:45;37.80;37.20
53268;DHT22;39156;51.176;6.738;2023-09-08T09:24:17;37.90;37.20
53268;DHT22;39156;51.176;6.738;2023-09-08T09:26:43;37.90;37.20
53268;DHT22;39156;51.176;6.738;2023-09-08T09:29:15;38.00;38.00
53268;DHT22;39156;51.176;6.738;2023-09-08T09:31:54;38.10;36.90
53268;DHT22;39156;51.176;6.738;2023-09-08T09:34:27;38.20;36.90
53268;DHT22;39156;51.176;6.738;2023-09-08T09:36:53;38.30;37.40
53268;DHT22;39156;51.176;6.738;2023-09-08T09:39:24;38.50;37.00
53268;DHT22;39156;51.176;6.738;2023-09-08T09:41:55;38.60;36.50
53268;DHT22;39156;51.176;6.738;2023-09-08T09:44:22;38.70;36.20
53268;DHT22;39156;51.176;6.738;2023-09-08T09:46:48;38.70;36.50
53268;DHT22;39156;51.176;6.738;2023-09-08T09:49:15;38.80;36.50
53268;DHT22;39156;51.176;6.738;2023-09-08T09:51:49;38.80;36.20
53268;DHT22;39156;51.176;6.738;2023-09-08T09:54:18;38.70;36.20
53268;DHT22;39156;51.176;6.738;2023-09-08T09:56:44;38.70;36.20
53268;DHT22;39156;51.176;6.738;2023-09-08T09:59:13;38.70;36.90
53268;DHT22;39156;51.176;6.738;2023-09-08T10:01:42;38.70;36.30
53268;DHT22;39156;51.176;6.738;2023-09-08T10:04:09;38.70;36.00
53268;DHT22;39156;51.176;6.738;2023-09-08T10:06:37;38.70;36.20
53268;DHT22;39156;51.176;6.738;2023-09-08T10:09:05;38.70;36.40
53268;DHT22;39156;51.176;6.738;2023-09-08T10:11:42;38.70;36.50
53268;DHT22;39156;51.176;6.738;2023-09-08T10:14:12;38.80;35.80
53268;DHT22;39156;51.176;6.738;2023-09-08T10:16:40;38.80;36.20
53268;DHT22;39156;51.176;6.738;2023-09-08T10:19:09;38.80;35.90
53268;DHT22;39156;51.176;6.738;2023-09-08T10:21:42;38.70;36.20
53268;DHT22;39156;51.176;6.738;2023-09-08T10:24:33;38.70;35.90
53268;DHT22;39156;51.176;6.738;2023-09-08T10:27:07;38.70;36.20
53268;DHT22;39156;51.176;6.738;2023-09-08T10:29:38;38.60;35.80
53268;DHT22;39156;51.176;6.738;2023-09-08T10:32:06;38.50;35.80
53268;DHT22;39156;51.176;6.738;2023-09-08T10:34:34;38.30;35.70
53268;DHT22;39156;51.176;6.738;2023-09-08T10:37:01;38.10;35.90
53268;DHT22;39156;51.176;6.738;2023-09-08T10:39:32;37.70;35.80
53268;DHT22;39156;51.176;6.738;2023-09-08T10:47:23;36.60;36.30
53268;DHT22;39156;51.176;6.738;2023-09-08T10:49:56;36.30;37.10
53268;DHT22;39156;51.176;6.738;2023-09-08T10:52:24;35.90;36.80
53268;DHT22;39156;51.176;6.738;2023-09-08T10:54:54;35.70;37.10
53268;DHT22;39156;51.176;6.738;2023-09-08T10:57:22;35.30;37.10
53268;DHT22;39156;51.176;6.738;2023-09-08T11:00:03;35.10;37.40
53268;DHT22;39156;51.176;6.738;2023-09-08T11:02:48;34.80;37.90
53268;DHT22;39156;51.176;6.738;2023-09-08T11:05:16;34.50;38.30
53268;DHT22;39156;51.176;6.738;2023-09-08T11:07:44;34.40;38.20
53268;DHT22;39156;51.176;6.738;2023-09-08T11:10:12;34.20;38.40
53268;DHT22;39156;51.176;6.738;2023-09-08T11:12:38;34.00;38.50
53268;DHT22;39156;51.176;6.738;2023-09-08T11:15:07;33.90;38.90
53268;DHT22;39156;51.176;6.738;2023-09-08T11:17:36;33.80;39.00
53268;DHT22;39156;51.176;6.738;2023-09-08T11:20:05;33.60;39.10
53268;DHT22;39156;51.176;6.738;2023-09-08T11:22:38;33.60;39.30
53268;DHT22;39156;51.176;6.738;2023-09-08T11:25:06;33.50;39.30
53268;DHT22;39156;51.176;6.738;2023-09-08T11:27:33;33.40;39.20
53268;DHT22;39156;51.176;6.738;2023-09-08T11:29:59;33.30;39.30
53268;DHT22;39156;51.176;6.738;2023-09-08T11:32:32;33.20;39.30
53268;DHT22;39156;51.176;6.738;2023-09-08T11:35:08;33.10;39.60
53268;DHT22;39156;51.176;6.738;2023-09-08T11:37:41;32.90;39.90
53268;DHT22;39156;51.176;6.738;2023-09-08T11:40:09;32.80;39.80
53268;DHT22;39156;51.176;6.738;2023-09-08T11:42:38;32.70;40.10
53268;DHT22;39156;51.176;6.738;2023-09-08T11:45:10;32.70;40.50
53268;DHT22;39156;51.176;6.738;2023-09-08T11:47:41;32.60;40.60
53268;DHT22;39156;51.176;6.738;2023-09-08T11:50:09;32.50;40.50
53268;DHT22;39156;51.176;6.738;2023-09-08T11:52:37;32.50;40.40
53268;DHT22;39156;51.176;6.738;2023-09-08T11:55:04;32.40;40.40
53268;DHT22;39156;51.176;6.738;2023-09-08T11:57:31;32.40;40.60
53268;DHT22;39156;51.176;6.738;2023-09-08T11:59:58;32.40;40.80
53268;DHT22;39156;51.176;6.738;2023-09-08T12:02:25;32.30;40.90
53268;DHT22;39156;51.176;6.738;2023-09-08T12:04:53;32.30;41.00
53268;DHT22;39156;51.176;6.738;2023-09-08T12:07:19;32.30;41.00
53268;DHT22;39156;51.176;6.738;2023-09-08T12:09:45;32.30;40.90
53268;DHT22;39156;51.176;6.738;2023-09-08T12:12:12;32.30;40.90
53268;DHT22;39156;51.176;6.738;2023-09-08T12:14:41;32.30;41.00
53268;DHT22;39156;51.176;6.738;2023-09-08T12:17:08;32.30;41.00
53268;DHT22;39156;51.176;6.738;2023-09-08T12:19:34;32.30;41.10
53268;DHT22;39156;51.176;6.738;2023-09-08T12:22:03;32.30;41.30
53268;DHT22;39156;51.176;6.738;2023-09-08T12:27:22;32.30;41.10
53268;DHT22;39156;51.176;6.738;2023-09-08T12:29:59;32.30;41.20
53268;DHT22;39156;51.176;6.738;2023-09-08T12:32:31;32.30;41.50
53268;DHT22;39156;51.176;6.738;2023-09-08T12:34:58;32.30;41.30
53268;DHT22;39156;51.176;6.738;2023-09-08T12:37:26;32.30;41.20
53268;DHT22;39156;51.176;6.738;2023-09-08T12:39:56;32.30;41.40
53268;DHT22;39156;51.176;6.738;2023-09-08T12:42:22;32.30;41.40
53268;DHT22;39156;51.176;6.738;2023-09-08T12:44:51;32.30;40.90
53268;DHT22;39156;51.176;6.738;2023-09-08T12:47:18;32.30;41.00
53268;DHT22;39156;51.176;6.738;2023-09-08T12:49:44;32.30;41.30
53268;DHT22;39156;51.176;6.738;2023-09-08T12:52:09;32.30;41.40
53268;DHT22;39156;51.176;6.738;2023-09-08T12:54:35;32.30;40.90
53268;DHT22;39156;51.176;6.738;2023-09-08T12:57:01;32.20;41.00
53268;DHT22;39156;51.176;6.738;2023-09-08T12:59:27;32.20;41.40
53268;DHT22;39156;51.176;6.738;2023-09-08T13:01:53;32.20;40.80
53268;DHT22;39156;51.176;6.738;2023-09-08T13:04:19;32.10;40.90
53268;DHT22;39156;51.176;6.738;2023-09-08T13:06:45;32.20;41.60
53268;DHT22;39156;51.176;6.738;2023-09-08T13:09:11;32.20;40.70
53268;DHT22;39156;51.176;6.738;2023-09-08T13:11:36;32.20;41.10
53268;DHT22;39156;51.176;6.738;2023-09-08T13:14:02;32.20;40.90
53268;DHT22;39156;51.176;6.738;2023-09-08T13:16:28;32.10;41.90
53268;DHT22;39156;51.176;6.738;2023-09-08T13:18:54;32.20;41.90
53268;DHT22;39156;51.176;6.738;2023-09-08T13:21:20;32.20;41.50
53268;DHT22;39156;51.176;6.738;2023-09-08T13:23:46;32.10;41.70
53268;DHT22;39156;51.176;6.738;2023-09-08T13:26:12;32.20;41.70
53268;DHT22;39156;51.176;6.738;2023-09-08T13:28:37;32.10;41.60
53268;DHT22;39156;51.176;6.738;2023-09-08T13:31:03;32.10;41.10
53268;DHT22;39156;51.176;6.738;2023-09-08T13:33:29;32.00;40.80
53268;DHT22;39156;51.176;6.738;2023-09-08T13:35:54;32.10;40.80
53268;DHT22;39156;51.176;6.738;2023-09-08T13:38:21;32.00;40.70
53268;DHT22;39156;51.176;6.738;2023-09-08T13:40:46;32.00;40.60
53268;DHT22;39156;51.176;6.738;2023-09-08T13:43:12;31.90;40.50
53268;DHT22;39156;51.176;6.738;2023-09-08T13:45:38;31.90;40.70
53268;DHT22;39156;51.176;6.738;2023-09-08T13:48:04;31.90;40.90
53268;DHT22;39156;51.176;6.738;2023-09-08T13:50:31;31.80;41.40
53268;DHT22;39156;51.176;6.738;2023-09-08T13:52:57;31.80;41.40
53268;DHT22;39156;51.176;6.738;2023-09-08T13:55:23;31.80;41.40
53268;DHT22;39156;51.176;6.738;2023-09-08T13:57:49;31.80;41.50
53268;DHT22;39156;51.176;6.738;2023-09-08T14:00:17;31.90;41.30
53268;DHT22;39156;51.176;6.738;2023-09-08T14:02:44;31.90;41.40
53268;DHT22;39156;51.176;6.738;2023-09-08T14:05:10;31.80;41.50
53268;DHT22;39156;51.176;6.738;2023-09-08T14:07:35;31.90;41.60
53268;DHT22;39156;51.176;6.738;2023-09-08T14:10:01;31.90;41.90
53268;DHT22;39156;51.176;6.738;2023-09-08T14:12:32;31.90;41.60
53268;DHT22;39156;51.176;6.738;2023-09-08T14:15:01;31.80;41.60
53268;DHT22;39156;51.176;6.738;2023-09-08T14:17:26;31.80;41.60
53268;DHT22;39156;51.176;6.738;2023-09-08T14:19:52;31.80;41.60
53268;DHT22;39156;51.176;6.738;2023-09-08T14:22:18;31.80;41.80
53268;DHT22;39156;51.176;6.738;2023-09-08T14:24:46;31.70;41.90
53268;DHT22;39156;51.176;6.738;2023-09-08T14:27:12;31.70;42.30
53268;DHT22;39156;51.176;6.738;2023-09-08T14:29:37;31.70;42.40
53268;DHT22;39156;51.176;6.738;2023-09-08T14:32:03;31.60;42.30
53268;DHT22;39156;51.176;6.738;2023-09-08T14:34:29;31.60;42.50
53268;DHT22;39156;51.176;6.738;2023-09-08T14:36:55;31.60;42.70
53268;DHT22;39156;51.176;6.738;2023-09-08T14:39:20;31.50;42.70
53268;DHT22;39156;51.176;6.738;2023-09-08T14:41:46;31.50;42.80
53268;DHT22;39156;51.176;6.738;2023-09-08T14:44:12;31.40;42.60
53268;DHT22;39156;51.176;6.738;2023-09-08T14:46:37;31.40;42.60
53268;DHT22;39156;51.176;6.738;2023-09-08T14:49:03;31.30;42.40
53268;DHT22;39156;51.176;6.738;2023-09-08T14:51:28;31.30;42.50
53268;DHT22;39156;51.176;6.738;2023-09-08T14:53:54;31.20;42.50
53268;DHT22;39156;51.176;6.738;2023-09-08T14:56:20;31.20;42.70
53268;DHT22;39156;51.176;6.738;2023-09-08T14:58:45;31.10;42.70
53268;DHT22;39156;51.176;6.738;2023-09-08T15:01:11;31.10;42.80
53268;DHT22;39156;51.176;6.738;2023-09-08T15:03:39;31.10;42.80
53268;DHT22;39156;51.176;6.738;2023-09-08T15:06:05;31.00;42.70
53268;DHT22;39156;51.176;6.738;2023-09-08T15:08:31;31.00;43.00
53268;DHT22;39156;51.176;6.738;2023-09-08T15:10:57;31.00;42.90
53268;DHT22;39156;51.176;6.738;2023-09-08T15:13:22;31.00;42.90
53268;DHT22;39156;51.176;6.738;2023-09-08T15:15:48;30.90;42.80
53268;DHT22;39156;51.176;6.738;2023-09-08T15:18:23;30.90;42.90
53268;DHT22;39156;51.176;6.738;2023-09-08T15:21:11;30.90;42.80
53268;DHT22;39156;51.176;6.738;2023-09-08T15:23:37;30.90;43.10
53268;DHT22;39156;51.176;6.738;2023-09-08T15:26:03;30.90;42.90
53268;DHT22;39156;51.176;6.738;2023-09-08T15:28:29;30.90;43.10
53268;DHT22;39156;51.176;6.738;2023-09-08T15:30:54;30.80;43.00
53268;DHT22;39156;51.176;6.738;2023-09-08T15:33:20;30.90;43.10
53268;DHT22;39156;51.176;6.738;2023-09-08T15:35:47;30.80;43.10
53268;DHT22;39156;51.176;6.738;2023-09-08T15:38:13;30.80;43.20